createdAt,value
2022-10-11T00:01:25.325Z,9.00
2022-10-11T00:06:28.009Z,8.40
2022-10-11T00:11:31.106Z,8.70
2022-10-11T00:16:33.969Z,9.20
2022-10-11T00:21:36.861Z,8.90
2022-10-11T00:26:43.200Z,8.30
2022-10-11T00:31:48.545Z,8.70
2022-10-11T00:36:51.179Z,9.00
2022-10-11T00:41:54.176Z,8.70
2022-10-11T00:47:09.408Z,8.10
2022-10-11T00:52:42.170Z,9.40
2022-10-11T00:57:47.588Z,8.50
2022-10-11T01:02:50.531Z,8.90
2022-10-11T01:07:53.218Z,8.20
2022-10-11T01:13:37.775Z,9.50
2022-10-11T01:18:54.142Z,8.90
2022-10-11T01:25:00.656Z,8.60
2022-10-11T01:30:05.455Z,8.60
2022-10-11T01:35:24.227Z,8.50
2022-10-11T01:40:34.037Z,8.80
2022-10-11T01:45:37.277Z,8.50
2022-10-11T01:50:45.529Z,7.40
2022-10-11T01:55:56.331Z,8.60
2022-10-11T02:01:12.157Z,8.50
2022-10-11T02:06:33.008Z,8.30
2022-10-11T02:11:35.818Z,8.40
2022-10-11T02:17:08.937Z,8.80
2022-10-11T02:22:22.831Z,9.00
2022-10-11T02:27:28.052Z,8.40
2022-10-11T02:32:30.715Z,7.80
2022-10-11T02:38:05.537Z,8.10
2022-10-11T02:43:18.873Z,7.90
2022-10-11T02:48:21.668Z,7.80
2022-10-11T02:53:25.081Z,8.50
2022-10-11T02:58:28.100Z,9.20
2022-10-11T03:03:30.725Z,9.00
2022-10-11T03:08:33.678Z,8.40
2022-10-11T03:13:36.314Z,8.80
2022-10-11T03:18:39.109Z,9.20
2022-10-11T03:23:42.606Z,9.30
2022-10-11T03:28:45.387Z,8.50
2022-10-11T03:33:48.173Z,8.40
2022-10-11T03:38:50.805Z,9.00
2022-10-11T03:43:53.437Z,9.10
2022-10-11T03:48:56.179Z,8.90
2022-10-11T03:53:58.929Z,9.20
2022-10-11T03:59:02.348Z,9.20
2022-10-11T04:04:05.510Z,9.50
2022-10-11T04:09:08.241Z,8.40
2022-10-11T04:14:11.050Z,8.50
2022-10-11T04:19:13.780Z,8.70
2022-10-11T04:24:16.475Z,8.90
2022-10-11T04:29:19.219Z,9.20
2022-10-11T04:34:21.947Z,8.50
2022-10-11T04:39:24.858Z,9.40
2022-10-11T04:44:27.478Z,9.50
2022-10-11T04:49:30.171Z,8.90
2022-10-11T04:54:32.770Z,8.40
2022-10-11T04:59:35.459Z,9.40
2022-10-11T05:04:38.060Z,9.50
2022-10-11T05:09:40.745Z,8.70
2022-10-11T05:14:43.524Z,8.80
2022-10-11T05:19:46.241Z,9.80
2022-10-11T05:24:48.914Z,9.80
2022-10-11T05:29:51.604Z,9.20
2022-10-11T05:34:54.284Z,8.90
2022-10-11T05:39:56.950Z,9.30
2022-10-11T05:44:59.585Z,9.00
2022-10-11T05:50:02.399Z,9.10
2022-10-11T05:55:06.331Z,9.80
2022-10-11T06:00:10.458Z,10.30
2022-10-11T06:05:13.220Z,11.20
2022-10-11T06:10:15.942Z,11.00
2022-10-11T06:15:20.223Z,11.00
2022-10-11T06:20:23.261Z,11.50
2022-10-11T06:25:25.909Z,11.40
2022-10-11T06:30:28.749Z,14.80
2022-10-11T06:35:31.529Z,19.30
2022-10-11T06:40:34.302Z,12.90
2022-10-11T06:45:37.027Z,15.20
2022-10-11T06:50:58.692Z,13.60
2022-10-11T06:56:07.637Z,13.80
2022-10-11T07:01:13.357Z,13.30
2022-10-11T07:06:18.815Z,12.70
2022-10-11T07:11:23.827Z,12.30
2022-10-11T07:16:27.311Z,12.80
2022-10-11T07:21:30.768Z,12.20
2022-10-11T07:26:38.776Z,11.90
2022-10-11T07:31:43.571Z,11.90
2022-10-11T07:36:47.115Z,12.70
2022-10-11T07:41:49.803Z,13.50
2022-10-11T07:46:52.460Z,13.10
2022-10-11T07:51:56.385Z,13.20
2022-10-11T07:56:59.147Z,14.40
2022-10-11T08:02:02.293Z,12.60
2022-10-11T08:07:05.178Z,11.20
2022-10-11T08:12:07.946Z,12.60
2022-10-11T08:17:11.301Z,10.50
2022-10-11T08:22:14.073Z,11.60
2022-10-11T08:27:16.676Z,11.00
2022-10-11T08:32:19.301Z,10.60
2022-10-11T08:37:22.025Z,11.00
2022-10-11T08:42:46.048Z,9.00
2022-10-11T08:47:48.803Z,8.60
2022-10-11T08:53:04.583Z,9.90
2022-10-11T08:58:08.414Z,9.10
2022-10-11T09:03:35.002Z,9.20
2022-10-11T09:08:56.501Z,8.60
2022-10-11T09:14:21.916Z,7.90
2022-10-11T09:19:41.300Z,8.60
2022-10-11T09:25:05.787Z,7.90
2022-10-11T09:30:17.980Z,8.30
2022-10-11T09:35:22.032Z,7.60
2022-10-11T09:40:46.714Z,7.70
2022-10-11T09:45:49.862Z,6.80
2022-10-11T09:50:52.812Z,6.90
2022-10-11T09:56:02.738Z,6.70
2022-10-11T10:01:14.143Z,6.30
2022-10-11T10:06:24.723Z,5.40
2022-10-11T10:11:27.435Z,5.10
2022-10-11T10:16:32.248Z,5.30
2022-10-11T10:21:46.555Z,5.20
2022-10-11T10:27:17.138Z,5.20
2022-10-11T10:32:27.836Z,4.60
2022-10-11T10:38:15.652Z,4.90
2022-10-11T10:43:21.629Z,4.00
2022-10-11T10:49:11.628Z,2.80
2022-10-11T10:54:39.020Z,4.00
2022-10-11T11:00:04.808Z,3.00
2022-10-11T11:05:23.545Z,2.00
2022-10-11T11:10:44.014Z,2.20
2022-10-11T11:16:18.676Z,2.00
2022-10-11T11:21:43.917Z,2.30
2022-10-11T11:27:03.389Z,1.80
2022-10-11T11:32:17.508Z,1.90
2022-10-11T11:37:28.760Z,1.80
2022-10-11T11:42:39.284Z,2.10
2022-10-11T11:47:43.297Z,1.90
2022-10-11T11:52:47.733Z,1.90
2022-10-11T11:58:24.938Z,2.00
2022-10-11T12:03:31.986Z,2.20
2022-10-11T12:08:34.654Z,1.60
2022-10-11T12:13:38.138Z,1.20
2022-10-11T12:18:56.325Z,1.70
2022-10-11T12:24:20.772Z,1.50
2022-10-11T12:29:42.917Z,1.70
2022-10-11T12:34:45.580Z,1.30
2022-10-11T12:40:00.581Z,1.80
2022-10-11T12:45:13.018Z,1.30
2022-10-11T12:50:39.681Z,1.40
2022-10-11T12:55:48.452Z,2.10
2022-10-11T13:00:51.830Z,2.20
2022-10-11T13:06:00.456Z,2.40
2022-10-11T13:11:07.478Z,2.40
2022-10-11T13:16:18.373Z,2.50
2022-10-11T13:21:31.950Z,2.80
2022-10-11T13:26:34.856Z,2.00
2022-10-11T13:31:40.576Z,1.90
2022-10-11T13:36:43.386Z,2.60
2022-10-11T13:41:46.184Z,2.10
2022-10-11T13:46:48.969Z,1.50
2022-10-11T13:52:02.548Z,1.80
2022-10-11T13:57:05.226Z,1.90
2022-10-11T14:02:20.227Z,1.70
2022-10-11T14:07:27.489Z,2.10
2022-10-11T14:12:35.482Z,2.10
2022-10-11T14:17:41.833Z,2.00
2022-10-11T14:22:44.584Z,1.70
2022-10-11T14:27:49.950Z,2.10
2022-10-11T14:32:53.930Z,1.80
2022-10-11T14:37:56.629Z,1.50
2022-10-11T14:42:59.466Z,2.10
2022-10-11T14:48:03.523Z,1.70
2022-10-11T14:53:07.667Z,2.30
2022-10-11T14:58:11.976Z,13.80
2022-10-11T15:03:14.913Z,13.20
2022-10-11T15:08:17.976Z,22.90
2022-10-11T15:13:22.630Z,6.70
2022-10-11T15:18:25.335Z,4.60
2022-10-11T15:23:28.078Z,2.50
2022-10-11T15:28:32.268Z,2.00
2022-10-11T15:33:35.006Z,2.00
2022-10-11T15:38:37.754Z,1.90
2022-10-11T15:43:40.680Z,1.80
2022-10-11T15:48:43.915Z,1.90
2022-10-11T15:53:46.717Z,2.10
2022-10-11T15:58:49.408Z,2.00
2022-10-11T16:03:52.174Z,2.30
2022-10-11T16:08:54.870Z,2.10
2022-10-11T16:13:57.517Z,2.20
2022-10-11T16:19:00.141Z,2.10
2022-10-11T16:24:02.972Z,2.20
2022-10-11T16:29:05.773Z,2.00
2022-10-11T16:34:08.448Z,2.60
2022-10-11T16:39:16.458Z,3.40
2022-10-11T16:44:21.681Z,3.00
2022-10-11T16:49:27.021Z,2.80
2022-10-11T16:54:30.481Z,2.60
2022-10-11T16:59:33.310Z,3.00
2022-10-11T17:04:35.938Z,2.70
2022-10-11T17:09:44.298Z,2.70
2022-10-11T17:19:50.179Z,3.80
2022-10-11T17:24:52.938Z,4.20
2022-10-11T17:29:55.768Z,4.00
2022-10-11T17:35:00.737Z,3.70
2022-10-11T17:40:04.740Z,4.30
2022-10-11T17:45:07.838Z,3.90
2022-10-11T17:50:10.637Z,4.20
2022-10-11T17:55:13.706Z,3.40
2022-10-11T18:00:16.768Z,3.70
2022-10-11T18:05:19.575Z,3.80
2022-10-11T18:10:22.456Z,3.80
2022-10-11T18:15:31.402Z,3.90
2022-10-11T18:20:34.218Z,3.70
2022-10-11T18:25:36.985Z,4.50
2022-10-11T18:30:44.186Z,4.30
2022-10-11T18:35:46.934Z,4.50
2022-10-11T18:40:49.531Z,5.20
2022-10-11T18:45:52.286Z,5.30
2022-10-11T18:51:06.004Z,5.50
2022-10-11T18:56:10.461Z,6.60
2022-10-11T19:01:15.974Z,7.10
2022-10-11T19:06:21.927Z,7.70
2022-10-11T19:11:25.568Z,8.30
2022-10-11T19:16:32.249Z,9.50
2022-10-11T19:21:35.090Z,10.50
2022-10-11T19:26:39.607Z,11.20
2022-10-11T19:31:48.524Z,11.90
2022-10-11T19:36:53.371Z,11.30
2022-10-11T19:41:56.411Z,11.20
2022-10-11T19:47:04.246Z,10.60
2022-10-11T19:52:09.444Z,11.90
2022-10-11T19:57:51.267Z,12.70
2022-10-11T20:02:54.133Z,11.10
2022-10-11T20:07:57.105Z,12.50
2022-10-11T20:13:03.285Z,12.10
2022-10-11T20:18:05.993Z,10.90
2022-10-11T20:23:18.170Z,12.20
2022-10-11T20:28:21.441Z,12.40
2022-10-11T20:33:25.130Z,13.80
2022-10-11T20:38:29.635Z,16.20
2022-10-11T20:43:33.724Z,12.60
2022-10-11T20:48:37.329Z,13.90
2022-10-11T21:01:43.118Z,13.90
2022-10-11T21:06:48.308Z,14.00
2022-10-11T21:21:21.971Z,12.80
2022-10-11T21:50:15.817Z,14.40
2022-10-11T22:13:32.195Z,16.50
2022-10-11T22:18:36.220Z,15.00
2022-10-11T22:23:40.393Z,15.70
2022-10-11T22:36:33.883Z,16.70
2022-10-11T22:54:23.180Z,14.90
2022-10-11T23:11:44.197Z,13.60
2022-10-11T23:23:57.063Z,14.30
2022-10-11T23:29:39.228Z,13.90
2022-10-11T23:47:27.269Z,14.60
2022-10-11T23:59:05.136Z,13.40
